createdAt,value
2018-09-16T00:01:40.590Z,0.30
2018-09-16T00:04:09.651Z,0.20
2018-09-16T00:06:38.611Z,0.23
2018-09-16T00:09:09.315Z,0.27
2018-09-16T00:11:38.800Z,0.20
2018-09-16T00:14:07.796Z,0.40
2018-09-16T00:16:36.768Z,0.20
2018-09-16T00:19:06.225Z,0.20
2018-09-16T00:21:35.176Z,0.27
2018-09-16T00:24:04.195Z,0.40
2018-09-16T00:26:33.281Z,0.27
2018-09-16T00:29:02.216Z,0.37
2018-09-16T00:31:31.167Z,0.20
2018-09-16T00:34:00.110Z,0.30
2018-09-16T00:36:29.076Z,0.20
2018-09-16T00:38:58.000Z,0.20
2018-09-16T00:41:26.939Z,0.30
2018-09-16T00:43:55.879Z,0.40
2018-09-16T00:46:24.815Z,0.20
2018-09-16T00:48:53.752Z,0.30
2018-09-16T00:51:22.708Z,0.20
2018-09-16T00:53:51.650Z,0.30
2018-09-16T00:56:20.615Z,0.30
2018-09-16T00:58:49.530Z,0.20
2018-09-16T01:01:18.468Z,0.30
2018-09-16T01:03:47.497Z,0.50
2018-09-16T01:06:21.751Z,0.30
2018-09-16T01:08:50.916Z,0.30
2018-09-16T01:11:19.896Z,0.30
2018-09-16T01:13:48.824Z,0.30
2018-09-16T01:16:17.759Z,0.23
2018-09-16T01:18:46.676Z,0.30
2018-09-16T01:21:15.584Z,0.30
2018-09-16T01:23:44.537Z,0.23
2018-09-16T01:26:13.559Z,0.30
2018-09-16T01:28:42.476Z,0.30
2018-09-16T01:31:11.408Z,0.20
2018-09-16T01:33:40.352Z,0.30
2018-09-16T01:36:09.294Z,0.27
2018-09-16T01:38:43.621Z,0.30
2018-09-16T01:41:12.556Z,0.33
2018-09-16T01:43:41.493Z,0.20
2018-09-16T01:46:10.465Z,0.30
2018-09-16T01:48:39.489Z,0.40
2018-09-16T01:51:08.413Z,0.30
2018-09-16T01:53:37.411Z,0.30
2018-09-16T01:56:06.406Z,0.27
2018-09-16T01:58:35.313Z,0.40
2018-09-16T02:01:04.302Z,0.20
2018-09-16T02:03:33.326Z,0.20
2018-09-16T02:06:02.252Z,0.40
2018-09-16T02:08:31.362Z,0.20
2018-09-16T02:11:00.321Z,0.30
2018-09-16T02:13:29.284Z,0.30
2018-09-16T02:15:58.344Z,0.27
2018-09-16T02:18:27.277Z,0.30
2018-09-16T02:20:56.305Z,0.30
2018-09-16T02:23:25.217Z,0.30
2018-09-16T02:25:54.168Z,0.20
2018-09-16T02:28:23.071Z,0.30
2018-09-16T02:30:51.987Z,0.20
2018-09-16T02:33:20.950Z,0.37
2018-09-16T02:35:49.866Z,0.40
2018-09-16T02:38:18.780Z,0.20
2018-09-16T02:40:47.704Z,0.20
2018-09-16T02:43:16.647Z,0.40
2018-09-16T02:45:45.716Z,0.30
2018-09-16T02:48:14.650Z,0.30
2018-09-16T02:50:43.574Z,0.20
2018-09-16T02:53:12.500Z,0.20
2018-09-16T02:55:41.416Z,0.30
2018-09-16T02:58:10.367Z,0.40
2018-09-16T03:00:39.316Z,0.20
2018-09-16T03:03:08.198Z,0.20
2018-09-16T03:05:42.585Z,0.30
2018-09-16T03:08:11.537Z,0.30
2018-09-16T03:10:40.486Z,0.20
2018-09-16T03:13:09.441Z,0.37
2018-09-16T03:15:39.476Z,0.37
2018-09-16T03:18:08.447Z,0.30
2018-09-16T03:20:37.405Z,0.23
2018-09-16T03:23:06.325Z,0.30
2018-09-16T03:25:35.252Z,0.20
2018-09-16T03:28:04.228Z,0.30
2018-09-16T03:30:33.144Z,0.30
2018-09-16T03:33:02.120Z,0.20
2018-09-16T03:35:31.029Z,0.20
2018-09-16T03:38:00.033Z,0.30
2018-09-16T03:40:28.941Z,0.40
2018-09-16T03:42:57.872Z,0.30
2018-09-16T03:45:26.814Z,0.30
2018-09-16T03:47:55.770Z,0.30
2018-09-16T03:50:24.696Z,0.27
2018-09-16T03:52:53.706Z,0.40
2018-09-16T03:55:22.660Z,0.40
2018-09-16T03:57:51.574Z,0.40
2018-09-16T04:00:20.504Z,0.23
2018-09-16T04:02:49.496Z,0.30
2018-09-16T04:05:19.980Z,0.23
2018-09-16T04:07:49.754Z,0.30
2018-09-16T04:10:18.702Z,0.30
2018-09-16T04:12:48.042Z,0.40
2018-09-16T04:15:17.150Z,0.30
2018-09-16T04:17:46.056Z,0.30
2018-09-16T04:20:14.966Z,0.47
2018-09-16T04:22:43.853Z,0.30
2018-09-16T04:25:12.773Z,0.30
2018-09-16T04:27:41.729Z,0.20
2018-09-16T04:30:10.641Z,0.30
2018-09-16T04:32:39.579Z,0.23
2018-09-16T04:35:09.196Z,0.20
2018-09-16T04:37:38.815Z,0.20
2018-09-16T04:40:07.952Z,0.30
2018-09-16T04:42:36.855Z,0.27
2018-09-16T04:45:05.797Z,0.40
2018-09-16T04:47:34.820Z,0.30
2018-09-16T04:50:03.897Z,0.40
2018-09-16T04:52:32.750Z,0.33
2018-09-16T04:55:01.874Z,0.13
2018-09-16T04:57:30.804Z,0.37
2018-09-16T04:59:59.736Z,0.30
2018-09-16T05:02:28.648Z,0.30
2018-09-16T05:04:57.570Z,0.30
2018-09-16T05:07:26.484Z,0.20
2018-09-16T05:09:55.412Z,0.20
2018-09-16T05:12:24.713Z,0.30
2018-09-16T05:14:53.641Z,0.33
2018-09-16T05:17:22.540Z,0.20
2018-09-16T05:19:51.450Z,0.30
2018-09-16T05:22:20.347Z,0.30
2018-09-16T05:24:49.346Z,0.27
2018-09-16T05:27:18.336Z,0.33
2018-09-16T05:29:47.568Z,0.20
2018-09-16T05:32:16.493Z,0.50
2018-09-16T05:34:45.474Z,0.40
2018-09-16T05:37:14.467Z,0.30
2018-09-16T05:39:43.399Z,0.27
2018-09-16T05:42:12.316Z,0.53
2018-09-16T05:44:41.217Z,0.27
2018-09-16T05:47:10.197Z,0.20
2018-09-16T05:49:39.144Z,0.27
2018-09-16T05:52:08.064Z,0.20
2018-09-16T05:54:37.164Z,0.20
2018-09-16T05:57:06.157Z,0.30
2018-09-16T05:59:35.171Z,0.30
2018-09-16T06:02:04.088Z,0.20
2018-09-16T06:04:33.017Z,0.40
2018-09-16T06:07:01.927Z,0.20
2018-09-16T06:09:30.828Z,0.20
2018-09-16T06:11:59.800Z,0.37
2018-09-16T06:14:28.702Z,0.30
2018-09-16T06:16:57.730Z,0.20
2018-09-16T06:19:26.673Z,0.30
2018-09-16T06:21:55.774Z,0.30
2018-09-16T06:24:24.792Z,0.37
2018-09-16T06:26:54.254Z,0.20
2018-09-16T06:29:23.248Z,0.20
2018-09-16T06:31:52.156Z,0.30
2018-09-16T06:34:21.093Z,0.30
2018-09-16T06:36:49.964Z,0.50
2018-09-16T06:39:18.908Z,0.30
2018-09-16T06:41:48.522Z,0.30
2018-09-16T06:44:17.448Z,0.30
2018-09-16T06:46:47.137Z,0.50
2018-09-16T06:49:16.058Z,0.20
2018-09-16T06:51:45.992Z,0.30
2018-09-16T06:54:14.960Z,0.37
2018-09-16T06:56:43.899Z,0.40
2018-09-16T06:59:12.838Z,0.30
2018-09-16T07:01:41.842Z,0.30
2018-09-16T07:04:10.744Z,0.40
2018-09-16T07:06:39.676Z,0.50
2018-09-16T07:09:10.909Z,0.30
2018-09-16T07:11:40.917Z,0.30
2018-09-16T07:14:09.821Z,0.40
2018-09-16T07:16:39.099Z,0.50
2018-09-16T07:19:08.885Z,0.40
2018-09-16T07:21:37.877Z,0.30
2018-09-16T07:24:06.851Z,0.43
2018-09-16T07:26:35.859Z,0.40
2018-09-16T07:29:04.776Z,0.30
2018-09-16T07:31:33.756Z,0.30
2018-09-16T07:34:02.851Z,0.30
2018-09-16T07:36:31.836Z,0.47
2018-09-16T07:39:00.777Z,0.40
2018-09-16T07:41:29.752Z,0.50
2018-09-16T07:43:58.807Z,0.33
2018-09-16T07:46:27.740Z,0.40
2018-09-16T07:48:56.699Z,0.40
2018-09-16T07:51:25.696Z,0.50
2018-09-16T07:53:54.620Z,0.60
2018-09-16T07:56:23.648Z,0.50
2018-09-16T07:58:52.585Z,0.50
2018-09-16T08:01:21.627Z,0.50
2018-09-16T08:03:50.534Z,0.60
2018-09-16T08:06:19.565Z,0.50
2018-09-16T08:08:48.454Z,0.40
2018-09-16T08:11:17.669Z,0.50
2018-09-16T08:13:46.699Z,0.50
2018-09-16T08:16:15.622Z,0.50
2018-09-16T08:18:44.559Z,0.50
2018-09-16T08:21:13.553Z,0.60
2018-09-16T08:23:42.472Z,0.50
2018-09-16T08:26:11.522Z,0.50
2018-09-16T08:28:40.500Z,0.50
2018-09-16T08:31:09.484Z,0.50
2018-09-16T08:33:38.510Z,0.40
2018-09-16T08:36:07.422Z,0.50
2018-09-16T08:38:36.440Z,0.63
2018-09-16T08:41:05.463Z,0.40
2018-09-16T08:43:34.394Z,0.60
2018-09-16T08:46:03.363Z,0.50
2018-09-16T08:48:33.364Z,0.43
2018-09-16T08:51:02.307Z,0.57
2018-09-16T08:53:31.220Z,0.70
2018-09-16T08:56:00.185Z,0.50
2018-09-16T08:58:29.270Z,0.40
2018-09-16T09:00:58.057Z,0.50
2018-09-16T09:03:26.963Z,0.45
2018-09-16T09:05:55.855Z,0.40
2018-09-16T09:08:24.792Z,0.60
2018-09-16T09:10:53.844Z,0.68
2018-09-16T09:13:22.762Z,0.65
2018-09-16T09:15:51.720Z,0.55
2018-09-16T09:18:20.667Z,0.50
2018-09-16T09:20:49.659Z,0.70
2018-09-16T09:23:18.593Z,0.60
2018-09-16T09:25:47.533Z,0.60
2018-09-16T09:28:16.593Z,0.60
2018-09-16T09:30:45.667Z,0.50
2018-09-16T09:33:14.592Z,0.55
2018-09-16T09:35:43.539Z,0.60
2018-09-16T09:38:12.400Z,0.50
2018-09-16T09:40:41.355Z,0.53
2018-09-16T09:43:10.286Z,0.60
2018-09-16T09:45:39.194Z,0.70
2018-09-16T09:48:08.238Z,0.42
2018-09-16T09:50:37.159Z,0.47
2018-09-16T09:53:06.059Z,0.60
2018-09-16T09:55:40.652Z,0.50
2018-09-16T09:58:09.651Z,0.50
2018-09-16T10:00:43.978Z,0.50
2018-09-16T10:03:12.942Z,0.53
2018-09-16T10:05:41.863Z,0.50
2018-09-16T10:08:10.947Z,0.50
2018-09-16T10:10:40.003Z,0.60
2018-09-16T10:13:08.949Z,0.53
2018-09-16T10:15:37.839Z,0.70
2018-09-16T10:18:06.767Z,0.68
2018-09-16T10:20:35.698Z,0.50
2018-09-16T10:23:04.667Z,0.57
2018-09-16T10:25:33.604Z,0.50
2018-09-16T10:28:02.525Z,0.60
2018-09-16T10:30:31.493Z,0.65
2018-09-16T10:33:00.427Z,0.60
2018-09-16T10:35:29.655Z,0.60
2018-09-16T10:37:58.659Z,0.50
2018-09-16T10:40:27.572Z,0.50
2018-09-16T10:42:56.560Z,0.57
2018-09-16T10:45:25.458Z,0.50
2018-09-16T10:47:54.401Z,0.40
2018-09-16T10:50:23.350Z,0.55
2018-09-16T10:52:52.264Z,0.60
2018-09-16T10:55:21.178Z,0.53
2018-09-16T10:57:50.148Z,0.60
2018-09-16T11:00:19.096Z,0.60
2018-09-16T11:02:48.010Z,0.65
2018-09-16T11:05:16.904Z,0.47
2018-09-16T11:07:45.876Z,0.60
2018-09-16T11:10:14.716Z,0.60
2018-09-16T11:12:43.656Z,0.50
2018-09-16T11:15:12.570Z,0.60
2018-09-16T11:17:41.517Z,0.70
2018-09-16T11:20:10.417Z,0.50
2018-09-16T11:22:39.330Z,0.50
2018-09-16T11:25:08.249Z,0.50
2018-09-16T11:27:37.210Z,0.50
2018-09-16T11:30:06.236Z,0.50
2018-09-16T11:32:35.197Z,0.50
2018-09-16T11:35:04.200Z,0.57
2018-09-16T11:37:33.146Z,0.60
2018-09-16T11:40:02.059Z,0.55
2018-09-16T11:42:30.968Z,0.70
2018-09-16T11:44:59.881Z,0.50
2018-09-16T11:47:28.836Z,0.50
2018-09-16T11:49:57.727Z,0.60
2018-09-16T11:52:26.764Z,0.62
2018-09-16T11:54:55.757Z,0.47
2018-09-16T11:57:24.681Z,0.62
2018-09-16T11:59:53.590Z,0.60
2018-09-16T12:02:22.541Z,0.53
2018-09-16T12:04:51.475Z,0.60
2018-09-16T12:07:20.920Z,0.60
2018-09-16T12:09:49.886Z,0.55
2018-09-16T12:12:18.828Z,0.53
2018-09-16T12:14:47.812Z,0.60
2018-09-16T12:17:16.764Z,0.50
2018-09-16T12:19:45.680Z,0.50
2018-09-16T12:22:14.604Z,0.60
2018-09-16T12:24:43.574Z,0.50
2018-09-16T12:27:12.482Z,0.60
2018-09-16T12:29:41.417Z,0.60
2018-09-16T12:32:10.348Z,0.65
2018-09-16T12:34:39.286Z,0.50
2018-09-16T12:37:08.185Z,0.60
2018-09-16T12:39:37.083Z,0.50
2018-09-16T12:42:06.097Z,0.47
2018-09-16T12:44:35.053Z,0.60
2018-09-16T12:47:03.970Z,0.60
2018-09-16T12:49:32.974Z,0.65
2018-09-16T12:52:02.050Z,0.62
2018-09-16T12:54:31.973Z,0.60
2018-09-16T12:57:01.024Z,0.50
2018-09-16T12:59:29.948Z,0.50
2018-09-16T13:01:58.866Z,0.60
2018-09-16T13:04:27.865Z,0.60
2018-09-16T13:06:56.746Z,0.50
2018-09-16T13:09:25.687Z,0.57
2018-09-16T13:11:54.576Z,0.60
2018-09-16T13:14:23.585Z,0.62
2018-09-16T13:16:52.495Z,0.50
2018-09-16T13:19:21.423Z,0.60
2018-09-16T13:21:50.347Z,0.60
2018-09-16T13:24:19.284Z,0.65
2018-09-16T13:26:48.212Z,0.62
2018-09-16T13:29:17.152Z,0.60
2018-09-16T13:31:46.065Z,0.50
2018-09-16T13:34:14.977Z,0.50
2018-09-16T13:36:43.922Z,0.70
2018-09-16T13:39:12.884Z,0.50
2018-09-16T13:41:41.795Z,0.60
2018-09-16T13:44:10.730Z,0.53
2018-09-16T13:46:39.654Z,0.60
2018-09-16T13:49:08.610Z,0.45
2018-09-16T13:51:37.584Z,0.70
2018-09-16T13:54:06.554Z,0.50
2018-09-16T13:56:35.575Z,0.60
2018-09-16T13:59:04.532Z,0.40
2018-09-16T14:01:33.478Z,0.60
2018-09-16T14:04:02.413Z,0.60
2018-09-16T14:06:31.326Z,0.50
2018-09-16T14:09:00.246Z,0.50
2018-09-16T14:11:29.149Z,0.57
2018-09-16T14:13:58.072Z,0.68
2018-09-16T14:16:26.992Z,0.57
2018-09-16T14:18:55.928Z,0.60
2018-09-16T14:21:24.978Z,0.60
2018-09-16T14:23:53.892Z,0.60
2018-09-16T14:26:22.836Z,0.57
2018-09-16T14:28:51.765Z,0.70
2018-09-16T14:31:20.691Z,0.50
2018-09-16T14:33:49.634Z,0.60
2018-09-16T14:36:18.584Z,0.62
2018-09-16T14:38:47.511Z,0.60
2018-09-16T14:41:16.428Z,0.50
2018-09-16T14:43:45.353Z,0.50
2018-09-16T14:46:14.272Z,0.50
2018-09-16T14:48:43.183Z,0.60
2018-09-16T14:51:12.087Z,0.40
2018-09-16T14:53:41.022Z,0.50
2018-09-16T14:56:09.961Z,0.40
2018-09-16T14:58:38.936Z,0.50
2018-09-16T15:01:07.882Z,0.50
2018-09-16T15:03:36.777Z,0.50
2018-09-16T15:06:05.728Z,0.50
2018-09-16T15:08:34.635Z,0.50
2018-09-16T15:11:03.616Z,0.50
2018-09-16T15:13:32.537Z,0.50
2018-09-16T15:16:01.464Z,0.60
2018-09-16T15:18:30.432Z,0.68
2018-09-16T15:20:59.416Z,0.50
2018-09-16T15:23:28.302Z,0.60
2018-09-16T15:25:57.228Z,0.50
2018-09-16T15:28:26.149Z,0.50
2018-09-16T15:30:55.087Z,0.50
2018-09-16T15:33:24.046Z,0.40
2018-09-16T15:35:52.957Z,0.50
2018-09-16T15:38:21.871Z,0.50
2018-09-16T15:40:50.914Z,0.40
2018-09-16T15:43:19.844Z,0.50
2018-09-16T15:45:48.869Z,0.50
2018-09-16T15:48:17.835Z,0.70
2018-09-16T15:50:46.736Z,0.60
2018-09-16T15:53:15.764Z,0.27
2018-09-16T15:55:44.722Z,0.60
2018-09-16T15:58:13.641Z,0.30
2018-09-16T16:00:42.669Z,0.40
2018-09-16T16:03:11.600Z,0.57
2018-09-16T16:05:40.989Z,0.40
2018-09-16T16:08:10.015Z,0.60
2018-09-16T16:10:39.146Z,0.60
2018-09-16T16:13:08.236Z,0.40
2018-09-16T16:15:37.159Z,0.30
2018-09-16T16:18:06.131Z,0.23
2018-09-16T16:20:35.063Z,0.33
2018-09-16T16:23:04.060Z,0.50
2018-09-16T16:25:33.016Z,0.47
2018-09-16T16:28:02.098Z,0.40
2018-09-16T16:30:31.144Z,0.50
2018-09-16T16:33:00.068Z,0.50
2018-09-16T16:35:28.983Z,0.33
2018-09-16T16:37:57.912Z,0.50
2018-09-16T16:40:26.836Z,0.50
2018-09-16T16:42:55.753Z,0.50
2018-09-16T16:45:24.741Z,0.40
2018-09-16T16:47:53.663Z,0.60
2018-09-16T16:50:22.591Z,0.40
2018-09-16T16:52:51.563Z,0.30
2018-09-16T16:55:20.427Z,0.40
2018-09-16T16:57:49.328Z,0.50
2018-09-16T17:00:19.457Z,0.50
2018-09-16T17:02:48.348Z,0.50
2018-09-16T17:05:17.397Z,0.50
2018-09-16T17:07:46.317Z,0.60
2018-09-16T17:10:15.668Z,0.60
2018-09-16T17:12:44.687Z,0.50
2018-09-16T17:15:13.656Z,0.50
2018-09-16T17:17:42.571Z,0.50
2018-09-16T17:20:11.500Z,0.40
2018-09-16T17:22:40.396Z,0.37
2018-09-16T17:25:09.333Z,0.40
2018-09-16T17:27:38.239Z,0.40
2018-09-16T17:30:07.146Z,0.40
2018-09-16T17:32:36.053Z,0.40
2018-09-16T17:35:05.116Z,0.40
2018-09-16T17:37:34.037Z,0.30
2018-09-16T17:40:02.943Z,0.40
2018-09-16T17:42:31.856Z,0.40
2018-09-16T17:45:00.879Z,0.50
2018-09-16T17:47:29.805Z,0.40
2018-09-16T17:49:58.733Z,0.30
2018-09-16T17:52:27.636Z,0.30
2018-09-16T17:54:56.646Z,0.40
2018-09-16T17:57:25.548Z,0.40
2018-09-16T17:59:54.538Z,0.30
2018-09-16T18:02:23.521Z,0.30
2018-09-16T18:04:52.624Z,0.40
2018-09-16T18:07:21.805Z,0.43
2018-09-16T18:09:50.818Z,0.40
2018-09-16T18:12:19.821Z,0.33
2018-09-16T18:14:48.788Z,0.30
2018-09-16T18:17:17.823Z,0.40
2018-09-16T18:19:46.706Z,0.40
2018-09-16T18:22:15.628Z,0.30
2018-09-16T18:24:44.561Z,0.20
2018-09-16T18:27:13.497Z,0.30
2018-09-16T18:29:42.534Z,0.20
2018-09-16T18:32:11.362Z,0.30
2018-09-16T18:34:40.328Z,0.40
2018-09-16T18:37:09.235Z,0.30
2018-09-16T18:39:38.240Z,0.27
2018-09-16T18:42:07.221Z,0.30
2018-09-16T18:44:36.124Z,0.40
2018-09-16T18:47:05.094Z,0.40
2018-09-16T18:49:34.029Z,0.20
2018-09-16T18:52:02.973Z,0.27
2018-09-16T18:54:31.956Z,0.30
2018-09-16T18:57:00.894Z,0.20
2018-09-16T18:59:29.835Z,0.37
2018-09-16T19:01:58.827Z,0.33
2018-09-16T19:04:27.843Z,0.30
2018-09-16T19:06:56.833Z,0.33
2018-09-16T19:09:25.736Z,0.20
2018-09-16T19:11:54.731Z,0.20
2018-09-16T19:14:23.644Z,0.30
2018-09-16T19:16:52.552Z,0.13
2018-09-16T19:19:21.476Z,0.30
2018-09-16T19:21:50.416Z,0.37
2018-09-16T19:24:19.346Z,0.40
2018-09-16T19:26:48.269Z,0.27
2018-09-16T19:29:17.359Z,0.30
2018-09-16T19:31:46.261Z,0.30
2018-09-16T19:34:15.180Z,0.40
2018-09-16T19:36:44.129Z,0.30
2018-09-16T19:39:13.102Z,0.30
2018-09-16T19:41:42.181Z,0.23
2018-09-16T19:44:11.120Z,0.40
2018-09-16T19:46:41.051Z,0.40
2018-09-16T19:49:09.881Z,0.20
2018-09-16T19:51:38.908Z,0.30
2018-09-16T19:54:07.845Z,0.27
2018-09-16T19:56:36.843Z,0.20
2018-09-16T19:59:05.770Z,0.30
2018-09-16T20:01:34.830Z,0.23
2018-09-16T20:04:03.777Z,0.40
2018-09-16T20:06:32.679Z,0.20
2018-09-16T20:09:01.621Z,0.30
2018-09-16T20:11:30.568Z,0.30
2018-09-16T20:13:59.549Z,0.40
2018-09-16T20:16:28.553Z,0.23
2018-09-16T20:18:57.558Z,0.40
2018-09-16T20:21:26.476Z,0.23
2018-09-16T20:23:55.425Z,0.37
2018-09-16T20:26:24.505Z,0.30
2018-09-16T20:28:53.510Z,0.30
2018-09-16T20:31:22.406Z,0.30
2018-09-16T20:33:51.409Z,0.40
2018-09-16T20:36:20.376Z,0.20
2018-09-16T20:38:49.394Z,0.20
2018-09-16T20:41:18.380Z,0.23
2018-09-16T20:43:47.328Z,0.17
2018-09-16T20:46:16.267Z,0.30
2018-09-16T20:48:45.238Z,0.20
2018-09-16T20:51:14.242Z,0.30
2018-09-16T20:53:43.175Z,0.30
2018-09-16T20:56:12.096Z,0.20
2018-09-16T20:58:41.113Z,0.30
2018-09-16T21:01:10.168Z,0.20
2018-09-16T21:03:39.104Z,0.30
2018-09-16T21:06:08.089Z,0.40
2018-09-16T21:08:37.013Z,0.30
2018-09-16T21:11:06.002Z,0.27
2018-09-16T21:13:34.908Z,0.30
2018-09-16T21:16:03.814Z,0.40
2018-09-16T21:18:32.764Z,0.30
2018-09-16T21:21:01.780Z,0.20
2018-09-16T21:23:30.722Z,0.30
2018-09-16T21:25:59.640Z,0.30
2018-09-16T21:28:28.561Z,0.20
2018-09-16T21:30:57.557Z,0.30
2018-09-16T21:33:26.480Z,0.30
2018-09-16T21:35:55.506Z,0.30
2018-09-16T21:38:24.436Z,0.20
2018-09-16T21:40:53.377Z,0.20
2018-09-16T21:43:22.479Z,0.30
2018-09-16T21:45:51.380Z,0.20
2018-09-16T21:48:20.307Z,0.40
2018-09-16T21:50:49.237Z,0.23
2018-09-16T21:53:18.281Z,0.23
2018-09-16T21:55:47.325Z,0.30
2018-09-16T21:58:16.289Z,0.20
2018-09-16T22:00:49.444Z,0.20
2018-09-16T22:03:18.393Z,0.20
2018-09-16T22:05:47.338Z,0.20
2018-09-16T22:08:16.660Z,0.20
2018-09-16T22:10:46.067Z,0.20
2018-09-16T22:13:15.400Z,0.20
2018-09-16T22:15:44.372Z,0.20
2018-09-16T22:18:13.322Z,0.30
2018-09-16T22:20:42.341Z,0.30
2018-09-16T22:23:11.286Z,0.30
2018-09-16T22:25:40.275Z,0.30
2018-09-16T22:28:09.239Z,0.20
2018-09-16T22:30:38.720Z,0.20
2018-09-16T22:33:07.765Z,0.20
2018-09-16T22:35:36.695Z,0.33
2018-09-16T22:38:05.662Z,0.20
2018-09-16T22:40:34.628Z,0.30
2018-09-16T22:43:03.597Z,0.30
2018-09-16T22:45:32.592Z,0.43
2018-09-16T22:48:01.546Z,0.30
2018-09-16T22:50:30.503Z,0.23
2018-09-16T22:52:59.433Z,0.30
2018-09-16T22:55:28.476Z,0.30
2018-09-16T22:57:57.561Z,0.20
2018-09-16T23:00:26.541Z,0.27
2018-09-16T23:02:55.478Z,0.30
2018-09-16T23:05:24.404Z,0.20
2018-09-16T23:07:53.356Z,0.27
2018-09-16T23:10:22.308Z,0.27
2018-09-16T23:12:51.252Z,0.30
2018-09-16T23:15:20.385Z,0.30
2018-09-16T23:17:49.324Z,0.10
2018-09-16T23:20:18.260Z,0.30
2018-09-16T23:22:47.230Z,0.40
2018-09-16T23:25:16.176Z,0.40
2018-09-16T23:27:45.138Z,0.40
2018-09-16T23:30:14.090Z,0.20
2018-09-16T23:32:43.070Z,0.33
2018-09-16T23:35:11.987Z,0.30
2018-09-16T23:37:40.929Z,0.30
2018-09-16T23:40:09.861Z,0.20
2018-09-16T23:42:38.958Z,0.30
2018-09-16T23:45:07.866Z,0.40
2018-09-16T23:47:36.849Z,0.20
2018-09-16T23:50:05.907Z,0.27
2018-09-16T23:52:34.832Z,0.40
2018-09-16T23:55:04.125Z,0.30
2018-09-16T23:57:33.081Z,0.30
